Colonsay, Canada
Current Conditions -  °F | °C
As of 10:00 PM on Saturday 22 Nov 2014 (Local Time) from CYXE Reporting Station
Light Snow Light Snow  
Wind Chill:   Ceiling: 1000
Heat Index: 18°   Visibility: 3mi
Dew Point: 14°   Wind: 23mph
Humidity: 86%   Direction: 40°NE
Pressure: 29.36"   Gusts: 30mph
Location:  51.97°N, 105.87°W
Report Text: CYXE 230400Z 04020G26KT 3SM -SN DRSN BKN010 OVC038 M08/M10 A2936 RMK SC5SC3 /S02/ SLP971
Loading
Personal Weather Stations






























Interactive Weather Map New forecast layout! Learn more

10-Day Weather Forecast

Advertisements
Track Severe Weather on mobile